Strona główna
METAR-TAF:

METAR-TAF

Lotnisko :

St. Clair County International Airport

Port Huron, Michigan, Stany Zjednoczone

Szerokość geograficzna: 42-55N, Długość geograficzna: 082-32W, wysokość: 198 m

Aktualna obserwacja pogody

Raport powstał 20 minut temu, godzina 06:15 UTC
Wiatr 4 kt od północ
Temperatura 7°C
Wilgotność 76%
Ciśnienie 1023 hPa
Widzialność: 16.1 km
bezchmurnie

METAR: KPHN 310615Z AUTO 01004KT 10SM CLR 07/03 A3022 RMK AO2

czas: 02:35 (06:35 UTC)


TAF: brakujący

Obserwacja i prognoza pogody dla ponad 4000 lotnisk (raport METAR i TAF).

Dostępne stacje oznaczono żółtymi i czerwonymi punktami na mapie.

Najedź kursorem aby zobaczyć nazwę stacji.

Kliknij aby zobaczyć obserwacje i prognozy pogody.

Aby zmienić mapę: kliknij na zielony przycisk z czarnym krzyżykiem, aby powiększyć; na zielony przycisk z myślnikiem, aby pomniejszyć; na zielone strzałki, aby przejść do map sąsiednich.


METAR-TAF: